Tegucigalpa, Honduras
Current Conditions -  °F | °C
As of 6:00 PM on Friday 28 Nov 2014 (Local Time) from MHTG Reporting Station
Rain Showers Rain Showers  
Wind Chill: 63°   Ceiling: 1600
Heat Index: 63°   Visibility: 4mi
Dew Point: 61°   Wind: 14mph
Humidity: 94%   Direction: 360°N
Pressure: 30.09"   Gusts: NA
Location:  14.09°N, 87.22°W
Report Text: MHTG 290000Z 36012KT 7000 VCSH FEW008 BKN016 17/16 Q1019 A3009 REDZ NOSIG
Loading
Personal Weather Stations






























Interactive Weather Map New forecast layout! Learn more

10-Day Weather Forecast

Advertisements
Track Severe Weather on mobile